createdAt,value
2022-12-28T00:00:29.807Z,100645.53
2022-12-28T00:01:33.917Z,100641.13
2022-12-28T00:02:35.652Z,100637.75
2022-12-28T00:03:37.486Z,100641.28
2022-12-28T00:04:39.313Z,100646.72
2022-12-28T00:05:41.211Z,100638.00
2022-12-28T00:06:42.897Z,100626.97
2022-12-28T00:07:45.061Z,100655.00
2022-12-28T00:08:46.991Z,100634.59
2022-12-28T00:09:48.814Z,100643.59
2022-12-28T00:11:09.073Z,100626.88
2022-12-28T00:12:12.284Z,100626.97
2022-12-28T00:13:14.253Z,100635.84
2022-12-28T00:14:15.920Z,100627.84
2022-12-28T00:15:17.473Z,100624.44
2022-12-28T00:16:31.864Z,100623.59
2022-12-28T00:17:33.613Z,100623.72
2022-12-28T00:18:36.687Z,100626.41
2022-12-28T00:19:38.356Z,100629.94
2022-12-28T00:20:39.935Z,100621.28
2022-12-28T00:21:42.635Z,100629.19
2022-12-28T00:22:45.011Z,100627.47
2022-12-28T00:23:53.053Z,100625.75
2022-12-28T00:24:54.844Z,100624.06
2022-12-28T00:25:57.044Z,100628.56
2022-12-28T00:26:59.101Z,100625.88
2022-12-28T00:28:00.657Z,100632.19
2022-12-28T00:29:05.777Z,100621.66
2022-12-28T00:30:08.459Z,100615.44
2022-12-28T00:31:10.197Z,100611.34
2022-12-28T00:32:11.731Z,100612.06
2022-12-28T00:33:14.683Z,100604.91
2022-12-28T00:34:17.421Z,100618.41
2022-12-28T00:35:18.925Z,100611.59
2022-12-28T00:36:20.592Z,100605.28
2022-12-28T00:37:22.724Z,100609.78
2022-12-28T00:38:25.693Z,100611.59
2022-12-28T00:39:28.114Z,100611.59
2022-12-28T00:40:29.703Z,100603.97
2022-12-28T00:41:31.564Z,100608.19
2022-12-28T00:42:33.291Z,100607.34
2022-12-28T00:43:35.551Z,100604.81
2022-12-28T00:44:37.196Z,100601.19
2022-12-28T00:45:39.421Z,100599.47
2022-12-28T00:46:41.556Z,100596.94
2022-12-28T00:47:43.434Z,100599.63
2022-12-28T00:48:45.119Z,100602.38
2022-12-28T00:49:46.637Z,100591.72
2022-12-28T00:50:48.320Z,100593.56
2022-12-28T00:51:50.319Z,100586.50
2022-12-28T00:52:51.908Z,100585.66
2022-12-28T00:53:53.855Z,100586.66
2022-12-28T00:54:55.540Z,100595.75
2022-12-28T00:56:05.334Z,100582.28
2022-12-28T00:57:06.937Z,100582.41
2022-12-28T00:58:08.955Z,100580.69
2022-12-28T00:59:11.655Z,100580.69
2022-12-28T01:00:14.518Z,100571.97
2022-12-28T01:01:20.539Z,100577.19
2022-12-28T01:02:22.648Z,100573.06
2022-12-28T01:03:24.212Z,100569.44
2022-12-28T01:04:25.863Z,100573.78
2022-12-28T01:05:28.130Z,100572.97
2022-12-28T01:06:30.040Z,100563.38
2022-12-28T01:07:31.812Z,100569.53
2022-12-28T01:08:35.627Z,100566.88
2022-12-28T01:09:37.385Z,100566.16
2022-12-28T01:10:39.656Z,100564.47
2022-12-28T01:11:41.162Z,100562.63
2022-12-28T01:12:43.284Z,100563.63
2022-12-28T01:13:45.521Z,100567.97
2022-12-28T01:14:47.234Z,100570.78
2022-12-28T01:15:48.803Z,100574.44
2022-12-28T01:16:50.460Z,100567.25
2022-12-28T01:17:56.625Z,100551.63
2022-12-28T01:19:00.525Z,100555.00
2022-12-28T01:20:02.301Z,100551.53
2022-12-28T01:21:12.055Z,100550.66
2022-12-28T01:22:14.471Z,100538.28
2022-12-28T01:23:16.289Z,100540.00
2022-12-28T01:24:18.385Z,100533.09
2022-12-28T01:25:20.302Z,100528.97
2022-12-28T01:26:22.909Z,100535.03
2022-12-28T01:27:24.734Z,100546.56
2022-12-28T01:28:26.252Z,100543.03
2022-12-28T01:29:28.177Z,100532.50
2022-12-28T01:30:30.818Z,100541.34
2022-12-28T01:31:32.572Z,100528.38
2022-12-28T01:32:34.336Z,100534.31
2022-12-28T01:33:36.079Z,100533.47
2022-12-28T01:34:37.676Z,100537.22
2022-12-28T01:35:39.376Z,100530.94
2022-12-28T01:36:40.945Z,100531.88
2022-12-28T01:37:42.758Z,100498.09
2022-12-28T01:38:45.692Z,100526.56
2022-12-28T01:39:47.475Z,100521.34
2022-12-28T01:40:50.172Z,100531.16
2022-12-28T01:41:52.278Z,100530.31
2022-12-28T01:42:53.870Z,100524.13
2022-12-28T01:43:55.471Z,100513.47
2022-12-28T01:44:57.043Z,100524.25
2022-12-28T01:45:58.690Z,100514.56
2022-12-28T01:47:06.984Z,100528.75
2022-12-28T01:48:20.129Z,100525.22
2022-12-28T01:49:29.660Z,100524.41
2022-12-28T01:50:31.209Z,100517.59
2022-12-28T01:51:58.632Z,100521.00
2022-12-28T01:53:03.925Z,100520.25
2022-12-28T01:54:05.619Z,100526.44
2022-12-28T01:55:07.505Z,100522.09
2022-12-28T01:56:09.357Z,100528.25
2022-12-28T01:57:11.827Z,100527.53
2022-12-28T01:58:24.853Z,100520.53
2022-12-28T01:59:30.566Z,100525.75
2022-12-28T02:00:33.349Z,100514.22
2022-12-28T02:01:35.322Z,100517.88
2022-12-28T02:02:37.755Z,100512.53
2022-12-28T02:03:39.673Z,100507.44
2022-12-28T02:04:41.654Z,100506.59
2022-12-28T02:05:46.426Z,100509.16
2022-12-28T02:06:48.385Z,100499.44
2022-12-28T02:07:57.517Z,100503.06
2022-12-28T02:09:04.711Z,100495.06
2022-12-28T02:10:41.173Z,100493.53
2022-12-28T02:11:29.463Z,100492.53
2022-12-28T02:12:32.391Z,100482.84
2022-12-28T02:13:35.002Z,100480.19
2022-12-28T02:14:37.413Z,100474.00
2022-12-28T02:15:39.078Z,100474.00
2022-12-28T02:16:42.969Z,100465.16
2022-12-28T02:17:44.783Z,100471.44
2022-12-28T02:18:47.509Z,100467.94
2022-12-28T02:19:49.390Z,100461.75
2022-12-28T02:21:09.711Z,100459.09
2022-12-28T02:22:20.599Z,100459.25
2022-12-28T02:23:54.473Z,100458.38
2022-12-28T02:25:13.095Z,100461.97
2022-12-28T02:26:43.436Z,100457.03
2022-12-28T02:27:54.759Z,100454.13
2022-12-28T02:29:14.307Z,100441.72
2022-12-28T02:30:17.106Z,100446.34
2022-12-28T02:31:30.870Z,100445.41
2022-12-28T02:32:51.429Z,100450.84
2022-12-28T02:34:04.730Z,100433.16
2022-12-28T02:35:18.704Z,100436.69
2022-12-28T02:36:28.112Z,100421.88
2022-12-28T02:37:36.470Z,100426.25
2022-12-28T02:38:45.584Z,100433.25
2022-12-28T02:39:59.964Z,100435.09
2022-12-28T02:41:08.107Z,100442.25
2022-12-28T02:42:10.477Z,100444.91
2022-12-28T02:43:12.767Z,100405.09
2022-12-28T02:44:34.780Z,100438.88
2022-12-28T02:46:01.729Z,100433.53
2022-12-28T02:47:27.551Z,100427.00
2022-12-28T02:49:04.779Z,100432.09
2022-12-28T02:50:11.003Z,100441.78
2022-12-28T02:51:46.695Z,100445.28
2022-12-28T02:53:06.981Z,100437.44
2022-12-28T02:55:09.292Z,100440.09
2022-12-28T02:56:41.607Z,100435.72
2022-12-28T02:57:49.148Z,100429.53
2022-12-28T02:59:04.243Z,100427.00
2022-12-28T03:00:08.892Z,100430.53
2022-12-28T03:01:26.574Z,100435.84
2022-12-28T03:02:28.320Z,100424.34
2022-12-28T03:03:56.423Z,100420.81
2022-12-28T03:05:58.228Z,100412.97
2022-12-28T03:07:23.044Z,100408.59
2022-12-28T03:08:39.362Z,100406.91
2022-12-28T03:09:58.767Z,100407.88
2022-12-28T03:11:07.572Z,100401.59
2022-12-28T03:12:20.966Z,100399.88
2022-12-28T03:13:44.262Z,100408.72
2022-12-28T03:14:54.083Z,100389.44
2022-12-28T03:16:03.509Z,100397.34
2022-12-28T03:17:25.977Z,100401.81
2022-12-28T03:18:48.889Z,100396.50
2022-12-28T03:20:14.692Z,100392.97
2022-12-28T03:21:35.993Z,100394.78
2022-12-28T03:22:58.834Z,100389.44
2022-12-28T03:24:21.217Z,100391.41
2022-12-28T03:25:46.419Z,100391.41
2022-12-28T03:27:09.887Z,100383.41
2022-12-28T03:28:34.684Z,100379.06
2022-12-28T03:30:02.551Z,100378.22
2022-12-28T03:31:10.239Z,100375.69
2022-12-28T03:32:12.214Z,100369.50
2022-12-28T03:33:14.385Z,100376.50
2022-12-28T03:34:16.524Z,100369.50
2022-12-28T03:35:21.098Z,100380.16
2022-12-28T03:36:51.541Z,100361.75
2022-12-28T03:38:00.194Z,100377.59
2022-12-28T03:39:24.874Z,100369.59
2022-12-28T03:40:32.389Z,100367.94
2022-12-28T03:41:47.432Z,100374.13
2022-12-28T03:43:10.213Z,100369.75
2022-12-28T03:44:32.964Z,100360.88
2022-12-28T03:46:03.090Z,100362.97
2022-12-28T03:47:14.898Z,100360.19
2022-12-28T03:48:17.909Z,100354.00
2022-12-28T03:49:19.918Z,100362.84
2022-12-28T03:50:24.486Z,100358.38
2022-12-28T03:51:30.226Z,100357.50
2022-12-28T03:52:32.869Z,100361.03
2022-12-28T03:53:44.331Z,100355.69
2022-12-28T03:54:46.256Z,100343.00
2022-12-28T03:55:48.044Z,100355.84
2022-12-28T03:56:51.562Z,100347.84
2022-12-28T03:57:53.344Z,100356.78
2022-12-28T03:58:56.147Z,100351.47
2022-12-28T03:59:57.810Z,100358.59
2022-12-28T04:00:59.593Z,100355.84
2022-12-28T04:02:01.379Z,100351.47
2022-12-28T04:03:03.099Z,100350.59
2022-12-28T04:04:04.974Z,100362.25
2022-12-28T04:05:07.239Z,100353.41
2022-12-28T04:06:15.979Z,100349.75
2022-12-28T04:07:17.663Z,100347.22
2022-12-28T04:08:19.344Z,100355.22
2022-12-28T04:09:22.380Z,100355.22
2022-12-28T04:10:24.178Z,100354.38
2022-12-28T04:11:26.602Z,100348.22
2022-12-28T04:12:30.472Z,100350.88
2022-12-28T04:13:32.311Z,100342.28
2022-12-28T04:14:33.933Z,100339.38
2022-12-28T04:15:35.617Z,100331.47
2022-12-28T04:16:37.361Z,100332.34
2022-12-28T04:17:39.287Z,100344.56
2022-12-28T04:18:44.761Z,100350.03
2022-12-28T04:19:46.284Z,100343.84
2022-12-28T04:20:47.992Z,100341.19
2022-12-28T04:21:49.832Z,100331.28
2022-12-28T04:22:51.604Z,100341.03
2022-12-28T04:23:53.490Z,100349.19
2022-12-28T04:24:55.017Z,100346.50
2022-12-28T04:26:03.060Z,100353.66
2022-12-28T04:27:04.624Z,100343.97
2022-12-28T04:28:06.155Z,100338.66
2022-12-28T04:29:08.351Z,100336.22
2022-12-28T04:30:10.399Z,100333.31
2022-12-28T04:31:13.987Z,100336.09
2022-12-28T04:32:16.064Z,100339.63
2022-12-28T04:33:18.003Z,100337.81
2022-12-28T04:34:19.635Z,100343.28
2022-12-28T04:35:21.374Z,100337.94
2022-12-28T04:36:22.920Z,100343.28
2022-12-28T04:37:24.645Z,100337.94
2022-12-28T04:38:26.683Z,100332.59
2022-12-28T04:39:28.328Z,100313.59
2022-12-28T04:40:49.954Z,100333.44
2022-12-28T04:41:51.604Z,100316.63
2022-12-28T04:42:53.840Z,100323.88
2022-12-28T04:43:55.978Z,100324.72
2022-12-28T04:44:57.447Z,100320.38
2022-12-28T04:46:00.592Z,100316.16
2022-12-28T04:47:02.279Z,100314.91
2022-12-28T04:48:04.728Z,100308.16
2022-12-28T04:49:06.481Z,100315.06
2022-12-28T04:50:08.396Z,100315.06
2022-12-28T04:51:23.478Z,100305.34
2022-12-28T04:52:25.040Z,100338.19
2022-12-28T04:53:26.743Z,100317.00
2022-12-28T04:54:28.330Z,100315.16
2022-12-28T04:55:32.301Z,100315.16
2022-12-28T04:56:35.448Z,100305.50
2022-12-28T04:57:37.257Z,100309.97
2022-12-28T04:58:39.152Z,100315.44
2022-12-28T04:59:41.268Z,100322.44
2022-12-28T05:00:43.005Z,100306.44
2022-12-28T05:01:45.013Z,100319.06
2022-12-28T05:02:46.917Z,100318.09
2022-12-28T05:03:55.494Z,100315.44
2022-12-28T05:04:58.099Z,100318.09
2022-12-28T05:06:05.336Z,100313.72
2022-12-28T05:07:06.947Z,100313.88
2022-12-28T05:08:08.560Z,100302.50
2022-12-28T05:09:10.460Z,100311.31
2022-12-28T05:10:12.056Z,100315.66
2022-12-28T05:11:16.993Z,100320.16
2022-12-28T05:12:21.279Z,100311.31
2022-12-28T05:13:22.876Z,100320.16
2022-12-28T05:14:24.419Z,100316.75
2022-12-28T05:15:25.959Z,100303.81
2022-12-28T05:16:29.252Z,100309.72
2022-12-28T05:17:30.875Z,100311.56
2022-12-28T05:18:32.609Z,100308.06
2022-12-28T05:19:34.749Z,100320.53
2022-12-28T05:20:36.328Z,100320.53
2022-12-28T05:21:37.959Z,100313.63
2022-12-28T05:22:41.180Z,100309.16
2022-12-28T05:23:43.260Z,100305.78
2022-12-28T05:24:44.894Z,100311.34
2022-12-28T05:25:53.258Z,100316.28
2022-12-28T05:26:54.909Z,100313.03
2022-12-28T05:27:56.988Z,100315.44
2022-12-28T05:28:59.111Z,100306.25
2022-12-28T05:30:00.901Z,100309.38
2022-12-28T05:31:05.722Z,100327.06
2022-12-28T05:32:07.490Z,100314.00
2022-12-28T05:33:09.212Z,100306.72
2022-12-28T05:34:10.790Z,100314.84
2022-12-28T05:35:12.334Z,100309.66
2022-12-28T05:36:19.601Z,100306.84
2022-12-28T05:37:22.303Z,100300.69
2022-12-28T05:38:24.072Z,100299.81
2022-12-28T05:39:25.664Z,100299.81
2022-12-28T05:40:27.591Z,100303.47
2022-12-28T05:41:30.270Z,100301.66
2022-12-28T05:42:32.887Z,100293.78
2022-12-28T05:43:34.959Z,100297.31
2022-12-28T05:44:36.909Z,100302.63
2022-12-28T05:45:38.554Z,100290.41
2022-12-28T05:46:40.427Z,100289.56
2022-12-28T05:47:42.674Z,100300.09
2022-12-28T05:48:44.319Z,100292.22
2022-12-28T05:49:47.206Z,100292.22
2022-12-28T05:50:48.839Z,100291.38
2022-12-28T05:51:52.044Z,100286.06
2022-12-28T05:52:53.862Z,100292.22
2022-12-28T05:53:56.717Z,100291.38
2022-12-28T05:54:58.235Z,100283.47
2022-12-28T05:56:14.433Z,100304.78
2022-12-28T05:57:16.292Z,100282.63
2022-12-28T05:58:17.840Z,100281.81
2022-12-28T05:59:19.824Z,100277.28
2022-12-28T06:00:21.822Z,100274.75
2022-12-28T06:01:26.821Z,100266.06
2022-12-28T06:02:28.609Z,100278.41
2022-12-28T06:03:30.331Z,100275.75
2022-12-28T06:04:32.043Z,100272.25
2022-12-28T06:05:34.684Z,100268.72
2022-12-28T06:06:36.809Z,100280.72
2022-12-28T06:07:38.614Z,100277.81
2022-12-28T06:08:41.576Z,100287.50
2022-12-28T06:09:43.346Z,100281.31
2022-12-28T06:10:44.857Z,100284.84
2022-12-28T06:11:46.460Z,100279.50
2022-12-28T06:12:47.950Z,100278.66
2022-12-28T06:13:50.718Z,100275.00
2022-12-28T06:14:52.473Z,100276.00
2022-12-28T06:15:54.007Z,100279.63
2022-12-28T06:16:55.561Z,100270.81
2022-12-28T06:17:57.167Z,100269.94
2022-12-28T06:18:59.467Z,100269.94
2022-12-28T06:20:01.029Z,100266.44
2022-12-28T06:21:28.663Z,100271.75
2022-12-28T06:22:30.269Z,100266.56
2022-12-28T06:23:32.329Z,100250.59
2022-12-28T06:24:34.129Z,100262.91
2022-12-28T06:25:37.500Z,100267.66
2022-12-28T06:26:41.091Z,100249.41
2022-12-28T06:27:42.753Z,100261.25
2022-12-28T06:28:45.424Z,100260.41
2022-12-28T06:29:46.998Z,100262.34
2022-12-28T06:30:52.484Z,100259.53
2022-12-28T06:31:56.478Z,100258.69
2022-12-28T06:32:58.319Z,100262.19
2022-12-28T06:34:01.229Z,100265.00
2022-12-28T06:35:03.213Z,100265.81
2022-12-28T06:36:05.468Z,100256.16
2022-12-28T06:37:07.364Z,100258.09
2022-12-28T06:38:09.714Z,100262.56
2022-12-28T06:39:13.662Z,100262.44
2022-12-28T06:40:15.919Z,100260.78
2022-12-28T06:41:19.483Z,100261.63
2022-12-28T06:42:21.280Z,100259.91
2022-12-28T06:43:22.853Z,100283.03
2022-12-28T06:44:24.546Z,100265.25
2022-12-28T06:45:26.726Z,100266.19
2022-12-28T06:46:30.803Z,100257.75
2022-12-28T06:47:33.812Z,100260.88
2022-12-28T06:48:36.354Z,100257.50
2022-12-28T06:49:38.117Z,100252.06
2022-12-28T06:50:40.327Z,100258.34
2022-12-28T06:51:42.453Z,100271.66
2022-12-28T06:52:44.501Z,100252.44
2022-12-28T06:53:47.451Z,100248.78
2022-12-28T06:54:49.427Z,100262.81
2022-12-28T06:56:00.510Z,100255.91
2022-12-28T06:57:02.180Z,100251.44
2022-12-28T06:58:03.778Z,100244.44
2022-12-28T06:59:06.487Z,100242.59
2022-12-28T07:00:08.909Z,100240.22
2022-12-28T07:01:22.012Z,100239.94
2022-12-28T07:02:24.021Z,100240.09
2022-12-28T07:03:25.968Z,100243.59
2022-12-28T07:04:28.085Z,100229.56
2022-12-28T07:05:31.933Z,100233.91
2022-12-28T07:06:39.068Z,100239.22
2022-12-28T07:07:40.685Z,100240.22
2022-12-28T07:08:43.029Z,100236.56
2022-12-28T07:09:44.658Z,100232.22
2022-12-28T07:10:46.748Z,100235.84
2022-12-28T07:11:50.657Z,100227.88
2022-12-28T07:12:52.198Z,100236.84
2022-12-28T07:13:53.955Z,100227.88
2022-12-28T07:14:55.587Z,100239.50
2022-12-28T07:15:57.538Z,100242.97
2022-12-28T07:16:59.181Z,100235.00
2022-12-28T07:18:00.798Z,100223.63
2022-12-28T07:19:02.543Z,100240.31
2022-12-28T07:20:04.727Z,100233.31
2022-12-28T07:21:15.178Z,100230.66
2022-12-28T07:22:16.813Z,100231.75
2022-12-28T07:23:18.379Z,100240.47
2022-12-28T07:24:20.324Z,100227.38
2022-12-28T07:25:21.887Z,100233.44
2022-12-28T07:26:26.670Z,100190.03
2022-12-28T07:27:28.339Z,100231.75
2022-12-28T07:28:29.971Z,100222.91
2022-12-28T07:29:32.001Z,100217.59
2022-12-28T07:30:34.218Z,100223.91
2022-12-28T07:31:44.607Z,100220.38
2022-12-28T07:32:47.999Z,100225.72
2022-12-28T07:33:52.180Z,100222.19
2022-12-28T07:34:53.829Z,100224.00
2022-12-28T07:35:58.338Z,100234.66
2022-12-28T07:37:00.398Z,100216.16
2022-12-28T07:38:02.041Z,100224.13
2022-12-28T07:39:03.821Z,100219.66
2022-12-28T07:40:06.162Z,100218.09
2022-12-28T07:41:11.037Z,100228.59
2022-12-28T07:42:12.776Z,100214.44
2022-12-28T07:43:14.791Z,100210.97
2022-12-28T07:44:16.352Z,100215.44
2022-12-28T07:45:17.945Z,100213.72
2022-12-28T07:46:24.924Z,100207.56
2022-12-28T07:47:26.698Z,100207.56
2022-12-28T07:48:32.724Z,100204.06
2022-12-28T07:49:34.462Z,100196.31
2022-12-28T07:50:38.192Z,100198.84
2022-12-28T07:51:40.031Z,100197.91
2022-12-28T07:52:41.684Z,100197.03
2022-12-28T07:53:45.565Z,100196.19
2022-12-28T07:54:47.086Z,100192.72
2022-12-28T07:55:56.854Z,100198.03
2022-12-28T07:56:59.056Z,100194.53
2022-12-28T07:58:00.587Z,100192.81
2022-12-28T07:59:04.866Z,100189.19
2022-12-28T08:00:07.487Z,100197.28
2022-12-28T08:01:14.623Z,100185.81
2022-12-28T08:02:16.431Z,100184.81
2022-12-28T08:03:19.797Z,100182.53
2022-12-28T08:04:21.524Z,100196.47
2022-12-28T08:05:23.437Z,100199.13
2022-12-28T08:06:26.429Z,100183.41
2022-12-28T08:07:29.797Z,100189.44
2022-12-28T08:08:34.963Z,100193.81
2022-12-28T08:09:36.879Z,100186.63
2022-12-28T08:10:38.597Z,100184.13
2022-12-28T08:11:43.149Z,100184.97
2022-12-28T08:12:44.761Z,100180.00
2022-12-28T08:13:48.725Z,100187.72
2022-12-28T08:14:50.316Z,100187.72
2022-12-28T08:15:55.480Z,100193.06
2022-12-28T08:16:57.284Z,100185.06
2022-12-28T08:17:59.223Z,100182.69
2022-12-28T08:19:03.363Z,100189.66
2022-12-28T08:20:05.946Z,100184.34
2022-12-28T08:21:14.331Z,100189.56
2022-12-28T08:22:16.209Z,100189.66
2022-12-28T08:23:17.829Z,100191.25
2022-12-28T08:24:20.006Z,100184.63
2022-12-28T08:25:21.723Z,100190.38
2022-12-28T08:26:29.752Z,100193.91
2022-12-28T08:27:38.193Z,100180.72
2022-12-28T08:28:40.983Z,100185.06
2022-12-28T08:29:42.558Z,100181.59
2022-12-28T08:30:44.319Z,100177.22
2022-12-28T08:31:46.741Z,100186.06
2022-12-28T08:32:48.362Z,100174.81
2022-12-28T08:33:50.767Z,100178.22
2022-12-28T08:34:52.388Z,100182.53
2022-12-28T08:35:56.873Z,100195.25
2022-12-28T08:36:58.475Z,100182.53
2022-12-28T08:38:00.057Z,100183.53
2022-12-28T08:39:02.774Z,100186.06
2022-12-28T08:40:05.008Z,100183.53
2022-12-28T08:41:08.675Z,100178.22
2022-12-28T08:42:11.819Z,100181.69
2022-12-28T08:43:13.634Z,100181.69
2022-12-28T08:44:15.351Z,100185.34
2022-12-28T08:45:16.975Z,100181.81
2022-12-28T08:46:30.746Z,100181.81
2022-12-28T08:47:32.905Z,100180.13
2022-12-28T08:48:35.287Z,100175.06
2022-12-28T08:49:37.060Z,100178.44
2022-12-28T08:50:38.803Z,100179.28
2022-12-28T08:51:42.161Z,100180.97
2022-12-28T08:52:43.988Z,100168.66
2022-12-28T08:53:46.288Z,100167.81
2022-12-28T08:54:47.927Z,100170.47
2022-12-28T08:55:50.502Z,100164.28
2022-12-28T08:56:53.530Z,100163.56
2022-12-28T08:57:55.299Z,100168.75
2022-12-28T09:02:02.813Z,100210.75
2022-12-28T09:03:04.838Z,100215.72
2022-12-28T09:04:09.459Z,100207.22
2022-12-28T09:05:11.472Z,100209.03
2022-12-28T09:06:16.182Z,100210.69
2022-12-28T09:07:17.874Z,100207.53
2022-12-28T09:08:19.749Z,100210.19
2022-12-28T09:09:22.133Z,100212.63
2022-12-28T09:10:24.053Z,100206.81
2022-12-28T09:11:26.446Z,100208.72
2022-12-28T09:12:28.237Z,100206.19
2022-12-28T09:13:30.358Z,100203.25
2022-12-28T09:14:32.023Z,100215.91
2022-12-28T09:15:33.725Z,100215.81
2022-12-28T09:16:39.362Z,100211.63
2022-12-28T09:17:41.115Z,100201.69
2022-12-28T09:18:44.684Z,100210.81
2022-12-28T09:19:46.458Z,100214.34
2022-12-28T09:20:48.250Z,100211.22
2022-12-28T09:21:52.657Z,100209.38
2022-12-28T09:22:54.659Z,100212.28
2022-12-28T09:23:57.136Z,100219.06
2022-12-28T09:24:59.160Z,100215.84
2022-12-28T09:26:28.795Z,100212.47
2022-12-28T09:27:31.566Z,100206.31
2022-12-28T09:28:33.857Z,100222.78
2022-12-28T09:29:35.805Z,100221.75
2022-12-28T09:30:37.703Z,100211.88
2022-12-28T09:31:40.713Z,100208.25
2022-12-28T09:32:43.135Z,100212.53
2022-12-28T09:35:25.159Z,100211.41
2022-12-28T09:36:39.234Z,100203.78
2022-12-28T09:37:41.045Z,100208.75
2022-12-28T09:38:43.767Z,100208.19
2022-12-28T09:39:46.157Z,100204.47
2022-12-28T09:40:48.303Z,100207.16
2022-12-28T09:41:52.764Z,100207.22
2022-12-28T09:42:56.045Z,100188.78
2022-12-28T09:44:09.976Z,100211.25
2022-12-28T09:45:12.956Z,100218.75
2022-12-28T09:46:18.748Z,100216.84
2022-12-28T09:47:30.977Z,100225.94
2022-12-28T09:48:35.075Z,100216.00
2022-12-28T09:49:45.144Z,100212.94
2022-12-28T09:50:48.081Z,100211.81
2022-12-28T09:51:57.622Z,100209.19
2022-12-28T09:53:17.470Z,100207.34
2022-12-28T09:54:19.754Z,100214.53
2022-12-28T09:55:21.722Z,100213.59
2022-12-28T09:56:29.863Z,100217.03
2022-12-28T09:57:38.228Z,100215.03
2022-12-28T09:58:46.421Z,100214.91
2022-12-28T09:59:52.344Z,100219.06
2022-12-28T10:00:57.375Z,100214.50
2022-12-28T10:02:03.253Z,100212.91
2022-12-28T10:03:19.945Z,100210.31
2022-12-28T10:04:21.999Z,100214.59
2022-12-28T10:05:24.142Z,100205.09
2022-12-28T10:06:28.437Z,100205.94
2022-12-28T10:07:30.380Z,100213.00
2022-12-28T10:08:38.183Z,100210.41
2022-12-28T10:09:39.995Z,100212.31
2022-12-28T10:10:48.374Z,100220.63
2022-12-28T10:11:50.746Z,100211.69
2022-12-28T10:12:53.146Z,100197.38
2022-12-28T10:14:00.647Z,100188.47
2022-12-28T10:15:02.516Z,100214.69
2022-12-28T10:16:06.738Z,100218.25
2022-12-28T10:17:12.619Z,100202.06
2022-12-28T10:18:15.437Z,100209.38
2022-12-28T10:19:24.698Z,100211.06
2022-12-28T10:20:26.654Z,100218.75
2022-12-28T10:21:33.582Z,100199.59
2022-12-28T10:22:48.016Z,100208.63
2022-12-28T10:24:29.765Z,100207.81
2022-12-28T10:25:19.409Z,100179.31
2022-12-28T10:26:21.163Z,100197.66
2022-12-28T10:27:24.999Z,100196.59
2022-12-28T10:28:33.596Z,100181.44
2022-12-28T10:29:35.452Z,100194.28
2022-12-28T10:30:49.027Z,100177.53
2022-12-28T10:32:14.725Z,100188.22
2022-12-28T10:33:19.314Z,100185.66
2022-12-28T10:34:22.736Z,100178.44
2022-12-28T10:35:41.202Z,100165.28
2022-12-28T10:36:43.839Z,100169.91
2022-12-28T10:37:45.652Z,100160.59
2022-12-28T10:38:56.843Z,100173.91
2022-12-28T10:40:01.991Z,100170.69
2022-12-28T10:41:05.866Z,100175.03
2022-12-28T10:42:21.082Z,100170.56
2022-12-28T10:43:23.113Z,100176.75
2022-12-28T10:44:43.153Z,100175.03
2022-12-28T10:45:52.394Z,100161.91
2022-12-28T10:46:59.750Z,100159.53
2022-12-28T10:48:03.213Z,100175.75
2022-12-28T10:49:08.692Z,100154.94
2022-12-28T10:50:38.134Z,100166.56
2022-12-28T10:52:03.820Z,100159.53
2022-12-28T10:53:16.016Z,100152.22
2022-12-28T10:54:27.559Z,100156.13
2022-12-28T10:55:33.474Z,100167.09
2022-12-28T10:56:48.639Z,100146.94
2022-12-28T10:58:27.359Z,100157.41
2022-12-28T10:59:15.590Z,100161.56
2022-12-28T11:00:22.197Z,100151.50
2022-12-28T11:01:32.265Z,100140.44
2022-12-28T11:02:35.125Z,100154.88
2022-12-28T11:03:39.345Z,100143.69
2022-12-28T11:04:53.833Z,100132.28
2022-12-28T11:06:09.902Z,100141.66
2022-12-28T11:07:28.170Z,100130.25
2022-12-28T11:08:30.320Z,100124.03
2022-12-28T11:09:35.369Z,100140.34
2022-12-28T11:10:38.274Z,100132.78
2022-12-28T11:11:41.420Z,100122.13
2022-12-28T11:12:46.191Z,100130.00
2022-12-28T11:13:57.351Z,100084.72
2022-12-28T11:14:59.625Z,100117.81
2022-12-28T11:16:01.904Z,100125.66
2022-12-28T11:17:25.237Z,100102.19
2022-12-28T11:18:30.860Z,100125.81
2022-12-28T11:19:37.349Z,100118.84
2022-12-28T11:20:44.059Z,100117.53
2022-12-28T11:21:46.216Z,100107.75
2022-12-28T11:22:49.001Z,100107.38
2022-12-28T11:23:52.268Z,100111.22
2022-12-28T11:24:55.275Z,100101.59
2022-12-28T11:25:58.434Z,100117.97
2022-12-28T11:27:00.208Z,100110.84
2022-12-28T11:28:12.777Z,100105.63
2022-12-28T11:29:17.369Z,100105.81
2022-12-28T11:30:21.368Z,100105.91
2022-12-28T11:31:37.872Z,100101.00
2022-12-28T11:32:46.415Z,100085.78
2022-12-28T11:33:55.165Z,100096.66
2022-12-28T11:34:58.550Z,100095.13
2022-12-28T11:36:05.573Z,100096.47
2022-12-28T11:37:16.824Z,100088.88
2022-12-28T11:38:39.812Z,100094.47
2022-12-28T11:39:44.302Z,100094.88
2022-12-28T11:40:52.701Z,100061.69
2022-12-28T11:42:37.926Z,100085.06
2022-12-28T11:43:29.302Z,100092.16
2022-12-28T11:44:30.999Z,100092.25
2022-12-28T11:45:54.848Z,100086.75
2022-12-28T11:47:05.019Z,100088.84
2022-12-28T11:48:43.854Z,100087.16
2022-12-28T11:49:47.741Z,100079.41
2022-12-28T11:50:53.490Z,100071.09
2022-12-28T11:52:17.482Z,100076.69
2022-12-28T11:53:44.363Z,100072.34
2022-12-28T11:54:55.497Z,100072.19
2022-12-28T11:56:00.243Z,100069.69
2022-12-28T11:57:02.112Z,100087.78
2022-12-28T11:58:39.573Z,100077.88
2022-12-28T11:59:41.203Z,100044.03
2022-12-28T12:00:49.940Z,100055.59
2022-12-28T12:01:53.556Z,100057.56
2022-12-28T12:03:01.026Z,100051.41
2022-12-28T12:04:06.200Z,100060.22
2022-12-28T12:05:37.420Z,100053.03
2022-12-28T12:06:48.769Z,100043.13
2022-12-28T12:07:50.856Z,100051.72
2022-12-28T12:08:53.384Z,100044.66
2022-12-28T12:10:22.276Z,100041.53
2022-12-28T12:11:29.576Z,100033.38
2022-12-28T12:12:31.414Z,100045.06
2022-12-28T12:13:42.654Z,100038.22
2022-12-28T12:14:47.826Z,100022.84
2022-12-28T12:15:50.883Z,100034.91
2022-12-28T12:17:03.365Z,100019.97
2022-12-28T12:18:14.374Z,100026.00
2022-12-28T12:19:25.833Z,100012.72
2022-12-28T12:21:02.240Z,100016.53
2022-12-28T12:22:15.131Z,100025.75
2022-12-28T12:23:40.527Z,100021.19
2022-12-28T12:25:01.977Z,100022.34
2022-12-28T12:26:20.995Z,100012.03
2022-12-28T12:27:36.799Z,100005.91
2022-12-28T12:28:44.410Z,100001.50
2022-12-28T12:29:53.425Z,100003.84
2022-12-28T12:30:56.601Z,99999.16
2022-12-28T12:32:11.913Z,99995.59
2022-12-28T12:33:22.485Z,100000.97
2022-12-28T12:34:32.156Z,99996.09
2022-12-28T12:35:57.523Z,99994.34
2022-12-28T12:37:05.370Z,99989.38
2022-12-28T12:38:22.231Z,99995.81